sensor_id;sensor_type;location;lat;lon;timestamp;temperature;humidity
3713;DHT22;1872;51.406;6.856;2023-02-28T00:01:26;1.50;99.90
3713;DHT22;1872;51.406;6.856;2023-02-28T00:03:52;1.40;99.90
3713;DHT22;1872;51.406;6.856;2023-02-28T00:06:17;1.40;99.90
3713;DHT22;1872;51.406;6.856;2023-02-28T00:08:43;1.40;99.90
3713;DHT22;1872;51.406;6.856;2023-02-28T00:11:12;1.40;99.90
3713;DHT22;1872;51.406;6.856;2023-02-28T00:13:40;1.40;99.90
3713;DHT22;1872;51.406;6.856;2023-02-28T00:16:09;1.40;99.90
3713;DHT22;1872;51.406;6.856;2023-02-28T00:18:35;1.30;99.90
3713;DHT22;1872;51.406;6.856;2023-02-28T00:21:01;1.20;99.90
3713;DHT22;1872;51.406;6.856;2023-02-28T00:23:27;1.20;99.90
3713;DHT22;1872;51.406;6.856;2023-02-28T00:25:53;1.10;99.90
3713;DHT22;1872;51.406;6.856;2023-02-28T00:28:20;1.10;99.90
3713;DHT22;1872;51.406;6.856;2023-02-28T00:30:46;1.10;99.90
3713;DHT22;1872;51.406;6.856;2023-02-28T00:33:11;1.10;99.90
3713;DHT22;1872;51.406;6.856;2023-02-28T00:35:38;1.10;99.90
3713;DHT22;1872;51.406;6.856;2023-02-28T00:38:04;1.20;99.90
3713;DHT22;1872;51.406;6.856;2023-02-28T00:40:30;1.20;99.90
3713;DHT22;1872;51.406;6.856;2023-02-28T00:42:58;1.20;99.90
3713;DHT22;1872;51.406;6.856;2023-02-28T00:45:23;1.20;99.90
3713;DHT22;1872;51.406;6.856;2023-02-28T00:47:49;1.20;99.90
3713;DHT22;1872;51.406;6.856;2023-02-28T00:50:19;1.10;99.90
3713;DHT22;1872;51.406;6.856;2023-02-28T00:52:46;1.20;99.90
3713;DHT22;1872;51.406;6.856;2023-02-28T00:55:12;1.10;99.90
3713;DHT22;1872;51.406;6.856;2023-02-28T00:57:38;1.10;99.90
3713;DHT22;1872;51.406;6.856;2023-02-28T01:00:04;1.10;99.90
3713;DHT22;1872;51.406;6.856;2023-02-28T01:02:30;1.10;99.90
3713;DHT22;1872;51.406;6.856;2023-02-28T01:04:55;1.10;99.90
3713;DHT22;1872;51.406;6.856;2023-02-28T01:07:23;1.10;99.90
3713;DHT22;1872;51.406;6.856;2023-02-28T01:09:49;1.10;99.90
3713;DHT22;1872;51.406;6.856;2023-02-28T01:12:15;1.10;99.90
3713;DHT22;1872;51.406;6.856;2023-02-28T01:14:41;1.10;99.90
3713;DHT22;1872;51.406;6.856;2023-02-28T01:17:06;1.10;99.90
3713;DHT22;1872;51.406;6.856;2023-02-28T01:19:32;1.00;99.90
3713;DHT22;1872;51.406;6.856;2023-02-28T01:22:01;1.00;99.90
3713;DHT22;1872;51.406;6.856;2023-02-28T01:24:27;1.00;99.90
3713;DHT22;1872;51.406;6.856;2023-02-28T01:26:53;1.00;99.90
3713;DHT22;1872;51.406;6.856;2023-02-28T01:29:18;1.00;99.90
3713;DHT22;1872;51.406;6.856;2023-02-28T01:31:47;1.00;99.90
3713;DHT22;1872;51.406;6.856;2023-02-28T01:34:12;1.00;99.90
3713;DHT22;1872;51.406;6.856;2023-02-28T01:36:38;1.00;99.90
3713;DHT22;1872;51.406;6.856;2023-02-28T01:39:04;1.00;99.90
3713;DHT22;1872;51.406;6.856;2023-02-28T01:41:32;1.00;99.90
3713;DHT22;1872;51.406;6.856;2023-02-28T01:44:06;1.00;99.90
3713;DHT22;1872;51.406;6.856;2023-02-28T01:46:35;0.90;99.90
3713;DHT22;1872;51.406;6.856;2023-02-28T01:49:12;0.90;99.90
3713;DHT22;1872;51.406;6.856;2023-02-28T01:51:44;0.80;99.90
3713;DHT22;1872;51.406;6.856;2023-02-28T01:54:14;0.80;99.90
3713;DHT22;1872;51.406;6.856;2023-02-28T01:56:49;0.80;99.90
3713;DHT22;1872;51.406;6.856;2023-02-28T01:59:34;0.70;99.90
3713;DHT22;1872;51.406;6.856;2023-02-28T02:02:01;0.70;99.90
3713;DHT22;1872;51.406;6.856;2023-02-28T02:04:34;0.80;99.90
3713;DHT22;1872;51.406;6.856;2023-02-28T02:07:03;0.80;99.90
3713;DHT22;1872;51.406;6.856;2023-02-28T02:09:29;0.70;99.90
3713;DHT22;1872;51.406;6.856;2023-02-28T02:11:55;0.80;99.90
3713;DHT22;1872;51.406;6.856;2023-02-28T02:14:36;0.70;99.90
3713;DHT22;1872;51.406;6.856;2023-02-28T02:17:31;0.70;99.90
3713;DHT22;1872;51.406;6.856;2023-02-28T02:28:25;0.60;99.90
3713;DHT22;1872;51.406;6.856;2023-02-28T02:42:44;0.50;99.90
3713;DHT22;1872;51.406;6.856;2023-02-28T02:45:16;0.40;99.90
3713;DHT22;1872;51.406;6.856;2023-02-28T02:47:45;0.40;99.90
3713;DHT22;1872;51.406;6.856;2023-02-28T02:50:16;0.30;99.90
3713;DHT22;1872;51.406;6.856;2023-02-28T02:52:48;0.30;99.90
3713;DHT22;1872;51.406;6.856;2023-02-28T02:55:17;0.30;99.90
3713;DHT22;1872;51.406;6.856;2023-02-28T02:57:47;0.20;99.90
3713;DHT22;1872;51.406;6.856;2023-02-28T03:00:19;0.20;99.90
3713;DHT22;1872;51.406;6.856;2023-02-28T03:02:47;0.20;99.90
3713;DHT22;1872;51.406;6.856;2023-02-28T03:05:55;0.10;99.90
3713;DHT22;1872;51.406;6.856;2023-02-28T03:08:19;0.10;99.90
3713;DHT22;1872;51.406;6.856;2023-02-28T03:10:48;0.10;99.90
3713;DHT22;1872;51.406;6.856;2023-02-28T03:25:02;0.20;99.90
3713;DHT22;1872;51.406;6.856;2023-02-28T03:27:39;0.20;99.90
3713;DHT22;1872;51.406;6.856;2023-02-28T03:30:12;0.20;99.90
3713;DHT22;1872;51.406;6.856;2023-02-28T03:32:51;0.20;99.90
3713;DHT22;1872;51.406;6.856;2023-02-28T03:35:22;0.20;99.90
3713;DHT22;1872;51.406;6.856;2023-02-28T03:37:58;0.20;99.90
3713;DHT22;1872;51.406;6.856;2023-02-28T03:40:28;0.20;99.90
3713;DHT22;1872;51.406;6.856;2023-02-28T03:42:59;0.20;99.90
3713;DHT22;1872;51.406;6.856;2023-02-28T03:45:30;0.20;99.90
3713;DHT22;1872;51.406;6.856;2023-02-28T03:48:22;0.20;99.90
3713;DHT22;1872;51.406;6.856;2023-02-28T03:50:53;0.20;99.90
3713;DHT22;1872;51.406;6.856;2023-02-28T03:53:44;0.20;99.90
3713;DHT22;1872;51.406;6.856;2023-02-28T03:56:24;0.10;99.90
3713;DHT22;1872;51.406;6.856;2023-02-28T03:59:01;0.10;99.90
3713;DHT22;1872;51.406;6.856;2023-02-28T04:01:35;0.10;99.90
3713;DHT22;1872;51.406;6.856;2023-02-28T04:04:03;0.10;99.90
3713;DHT22;1872;51.406;6.856;2023-02-28T04:06:31;0.10;99.90
3713;DHT22;1872;51.406;6.856;2023-02-28T04:08:58;0.00;99.90
3713;DHT22;1872;51.406;6.856;2023-02-28T04:11:27;0.10;99.90
3713;DHT22;1872;51.406;6.856;2023-02-28T04:13:55;0.10;99.90
3713;DHT22;1872;51.406;6.856;2023-02-28T04:16:21;0.10;99.90
3713;DHT22;1872;51.406;6.856;2023-02-28T04:18:47;0.10;99.90
3713;DHT22;1872;51.406;6.856;2023-02-28T04:21:12;0.10;99.90
3713;DHT22;1872;51.406;6.856;2023-02-28T04:23:39;0.10;99.90
3713;DHT22;1872;51.406;6.856;2023-02-28T04:26:05;0.10;99.90
3713;DHT22;1872;51.406;6.856;2023-02-28T04:28:31;0.10;99.90
3713;DHT22;1872;51.406;6.856;2023-02-28T04:30:59;0.10;99.90
3713;DHT22;1872;51.406;6.856;2023-02-28T04:33:24;0.10;99.90
3713;DHT22;1872;51.406;6.856;2023-02-28T04:36:04;0.10;99.90
3713;DHT22;1872;51.406;6.856;2023-02-28T04:38:33;0.10;99.90
3713;DHT22;1872;51.406;6.856;2023-02-28T04:40:59;0.00;99.90
3713;DHT22;1872;51.406;6.856;2023-02-28T04:43:29;-0.10;99.90
3713;DHT22;1872;51.406;6.856;2023-02-28T04:45:56;-0.10;99.90
3713;DHT22;1872;51.406;6.856;2023-02-28T04:48:23;-0.20;99.90
3713;DHT22;1872;51.406;6.856;2023-02-28T04:50:50;-0.20;99.90
3713;DHT22;1872;51.406;6.856;2023-02-28T04:53:16;-0.10;99.90
3713;DHT22;1872;51.406;6.856;2023-02-28T04:55:44;-0.20;99.90
3713;DHT22;1872;51.406;6.856;2023-02-28T04:58:10;-0.20;99.90
3713;DHT22;1872;51.406;6.856;2023-02-28T05:00:35;-0.20;99.90
3713;DHT22;1872;51.406;6.856;2023-02-28T05:03:01;-0.10;99.90
3713;DHT22;1872;51.406;6.856;2023-02-28T05:05:29;-0.10;99.90
3713;DHT22;1872;51.406;6.856;2023-02-28T05:07:55;-0.10;99.90
3713;DHT22;1872;51.406;6.856;2023-02-28T05:10:22;0.00;99.90
3713;DHT22;1872;51.406;6.856;2023-02-28T05:12:47;0.00;99.90
3713;DHT22;1872;51.406;6.856;2023-02-28T05:15:14;0.00;99.90
3713;DHT22;1872;51.406;6.856;2023-02-28T05:17:40;0.00;99.90
3713;DHT22;1872;51.406;6.856;2023-02-28T05:20:06;0.00;99.90
3713;DHT22;1872;51.406;6.856;2023-02-28T05:22:32;0.00;99.90
3713;DHT22;1872;51.406;6.856;2023-02-28T05:24:58;0.00;99.90
3713;DHT22;1872;51.406;6.856;2023-02-28T05:27:24;-0.10;99.90
3713;DHT22;1872;51.406;6.856;2023-02-28T05:29:50;-0.10;99.90
3713;DHT22;1872;51.406;6.856;2023-02-28T05:32:15;-0.20;99.90
3713;DHT22;1872;51.406;6.856;2023-02-28T05:34:41;-0.20;99.90
3713;DHT22;1872;51.406;6.856;2023-02-28T05:37:16;-0.20;99.90
3713;DHT22;1872;51.406;6.856;2023-02-28T05:39:42;-0.20;99.90
3713;DHT22;1872;51.406;6.856;2023-02-28T05:42:08;-0.20;99.90
3713;DHT22;1872;51.406;6.856;2023-02-28T05:44:35;-0.20;99.90
3713;DHT22;1872;51.406;6.856;2023-02-28T05:47:00;-0.30;99.90
3713;DHT22;1872;51.406;6.856;2023-02-28T05:49:26;-0.30;99.90
3713;DHT22;1872;51.406;6.856;2023-02-28T05:51:52;-0.30;99.90
3713;DHT22;1872;51.406;6.856;2023-02-28T05:54:18;-0.30;99.90
3713;DHT22;1872;51.406;6.856;2023-02-28T05:56:43;-0.30;99.90
3713;DHT22;1872;51.406;6.856;2023-02-28T05:59:14;-0.30;99.90
3713;DHT22;1872;51.406;6.856;2023-02-28T06:01:44;-0.30;99.90
3713;DHT22;1872;51.406;6.856;2023-02-28T06:04:15;-0.30;99.90
3713;DHT22;1872;51.406;6.856;2023-02-28T06:06:47;-0.30;99.90
3713;DHT22;1872;51.406;6.856;2023-02-28T06:09:13;-0.30;99.90
3713;DHT22;1872;51.406;6.856;2023-02-28T06:11:39;-0.30;99.90
3713;DHT22;1872;51.406;6.856;2023-02-28T06:14:16;-0.30;99.90
3713;DHT22;1872;51.406;6.856;2023-02-28T06:16:43;-0.30;99.90
3713;DHT22;1872;51.406;6.856;2023-02-28T06:19:09;-0.40;99.90
3713;DHT22;1872;51.406;6.856;2023-02-28T06:21:35;-0.40;99.90
3713;DHT22;1872;51.406;6.856;2023-02-28T06:24:01;-0.40;99.90
3713;DHT22;1872;51.406;6.856;2023-02-28T06:26:27;-0.40;99.90
3713;DHT22;1872;51.406;6.856;2023-02-28T06:28:53;-0.40;99.90
3713;DHT22;1872;51.406;6.856;2023-02-28T06:31:20;-0.50;99.90
3713;DHT22;1872;51.406;6.856;2023-02-28T06:33:46;-0.50;99.90
3713;DHT22;1872;51.406;6.856;2023-02-28T06:36:14;-0.50;99.90
3713;DHT22;1872;51.406;6.856;2023-02-28T06:38:40;-0.50;99.90
3713;DHT22;1872;51.406;6.856;2023-02-28T06:41:06;-0.50;99.90
3713;DHT22;1872;51.406;6.856;2023-02-28T06:43:39;-0.50;99.90
3713;DHT22;1872;51.406;6.856;2023-02-28T06:46:07;-0.50;99.90
3713;DHT22;1872;51.406;6.856;2023-02-28T06:48:32;-0.50;99.90
3713;DHT22;1872;51.406;6.856;2023-02-28T06:51:08;-0.50;99.90
3713;DHT22;1872;51.406;6.856;2023-02-28T06:53:34;-0.50;99.90
3713;DHT22;1872;51.406;6.856;2023-02-28T06:56:04;-0.50;99.90
3713;DHT22;1872;51.406;6.856;2023-02-28T06:58:31;-0.50;99.90
3713;DHT22;1872;51.406;6.856;2023-02-28T07:00:56;-0.40;99.90
3713;DHT22;1872;51.406;6.856;2023-02-28T07:03:22;-0.40;99.90
3713;DHT22;1872;51.406;6.856;2023-02-28T07:05:48;-0.30;99.90
3713;DHT22;1872;51.406;6.856;2023-02-28T07:08:14;-0.30;99.90
3713;DHT22;1872;51.406;6.856;2023-02-28T07:10:40;-0.20;99.90
3713;DHT22;1872;51.406;6.856;2023-02-28T07:13:08;-0.20;99.90
3713;DHT22;1872;51.406;6.856;2023-02-28T07:15:35;-0.10;99.90
3713;DHT22;1872;51.406;6.856;2023-02-28T07:18:01;-0.10;99.90
3713;DHT22;1872;51.406;6.856;2023-02-28T07:20:26;0.00;99.90
3713;DHT22;1872;51.406;6.856;2023-02-28T07:22:52;0.00;99.90
3713;DHT22;1872;51.406;6.856;2023-02-28T07:25:26;0.10;99.90
3713;DHT22;1872;51.406;6.856;2023-02-28T07:27:53;0.20;99.90
3713;DHT22;1872;51.406;6.856;2023-02-28T07:30:19;0.30;99.90
3713;DHT22;1872;51.406;6.856;2023-02-28T07:32:45;0.30;99.90
3713;DHT22;1872;51.406;6.856;2023-02-28T07:35:12;0.40;99.90
3713;DHT22;1872;51.406;6.856;2023-02-28T07:37:38;0.50;99.90
3713;DHT22;1872;51.406;6.856;2023-02-28T07:40:09;0.50;99.90
3713;DHT22;1872;51.406;6.856;2023-02-28T07:42:37;0.60;99.90
3713;DHT22;1872;51.406;6.856;2023-02-28T07:45:04;0.60;99.90
3713;DHT22;1872;51.406;6.856;2023-02-28T07:47:30;0.70;99.90
3713;DHT22;1872;51.406;6.856;2023-02-28T07:49:57;0.70;99.90
3713;DHT22;1872;51.406;6.856;2023-02-28T07:52:23;0.80;99.90
3713;DHT22;1872;51.406;6.856;2023-02-28T07:54:50;0.80;99.90
3713;DHT22;1872;51.406;6.856;2023-02-28T07:57:15;0.90;99.90
3713;DHT22;1872;51.406;6.856;2023-02-28T07:59:41;1.00;99.90
3713;DHT22;1872;51.406;6.856;2023-02-28T08:02:13;1.10;99.90
3713;DHT22;1872;51.406;6.856;2023-02-28T08:04:39;1.20;99.90
3713;DHT22;1872;51.406;6.856;2023-02-28T08:07:05;1.40;99.90
3713;DHT22;1872;51.406;6.856;2023-02-28T08:09:31;1.50;99.90
3713;DHT22;1872;51.406;6.856;2023-02-28T08:11:56;1.60;99.90
3713;DHT22;1872;51.406;6.856;2023-02-28T08:14:22;1.70;99.90
3713;DHT22;1872;51.406;6.856;2023-02-28T08:16:48;1.80;99.90
3713;DHT22;1872;51.406;6.856;2023-02-28T08:19:14;1.80;99.90
3713;DHT22;1872;51.406;6.856;2023-02-28T08:21:39;1.80;99.90
3713;DHT22;1872;51.406;6.856;2023-02-28T08:24:05;1.80;99.90
3713;DHT22;1872;51.406;6.856;2023-02-28T08:26:31;1.70;99.90
3713;DHT22;1872;51.406;6.856;2023-02-28T08:28:57;1.70;99.90
3713;DHT22;1872;51.406;6.856;2023-02-28T08:31:23;1.80;99.90
3713;DHT22;1872;51.406;6.856;2023-02-28T08:33:49;1.90;99.90
3713;DHT22;1872;51.406;6.856;2023-02-28T08:36:18;2.10;99.90
3713;DHT22;1872;51.406;6.856;2023-02-28T08:38:43;2.20;99.90
3713;DHT22;1872;51.406;6.856;2023-02-28T08:41:11;2.30;99.90
3713;DHT22;1872;51.406;6.856;2023-02-28T08:43:38;2.50;99.90
3713;DHT22;1872;51.406;6.856;2023-02-28T08:46:04;2.60;99.90
3713;DHT22;1872;51.406;6.856;2023-02-28T08:48:32;2.80;99.90
3713;DHT22;1872;51.406;6.856;2023-02-28T08:51:06;2.90;99.90
3713;DHT22;1872;51.406;6.856;2023-02-28T08:53:35;3.00;99.90
3713;DHT22;1872;51.406;6.856;2023-02-28T08:56:12;3.00;99.90
3713;DHT22;1872;51.406;6.856;2023-02-28T08:58:39;3.00;99.90
3713;DHT22;1872;51.406;6.856;2023-02-28T09:01:14;3.10;99.90
3713;DHT22;1872;51.406;6.856;2023-02-28T09:03:41;3.10;99.90
3713;DHT22;1872;51.406;6.856;2023-02-28T09:06:08;3.10;99.90
3713;DHT22;1872;51.406;6.856;2023-02-28T09:08:34;3.10;99.90
3713;DHT22;1872;51.406;6.856;2023-02-28T09:11:01;3.20;99.90
3713;DHT22;1872;51.406;6.856;2023-02-28T09:13:27;3.20;99.90
3713;DHT22;1872;51.406;6.856;2023-02-28T09:15:54;3.30;99.90
3713;DHT22;1872;51.406;6.856;2023-02-28T09:18:20;3.30;99.90
3713;DHT22;1872;51.406;6.856;2023-02-28T09:20:46;3.40;99.90
3713;DHT22;1872;51.406;6.856;2023-02-28T09:23:14;3.40;99.90
3713;DHT22;1872;51.406;6.856;2023-02-28T09:25:51;3.50;99.90
3713;DHT22;1872;51.406;6.856;2023-02-28T09:28:17;3.50;99.90
3713;DHT22;1872;51.406;6.856;2023-02-28T09:30:49;3.50;99.90
3713;DHT22;1872;51.406;6.856;2023-02-28T09:33:16;3.50;99.90
3713;DHT22;1872;51.406;6.856;2023-02-28T09:35:42;3.40;99.90
3713;DHT22;1872;51.406;6.856;2023-02-28T09:38:09;3.40;99.90
3713;DHT22;1872;51.406;6.856;2023-02-28T09:43:11;3.30;99.90
3713;DHT22;1872;51.406;6.856;2023-02-28T09:45:41;3.40;99.90
3713;DHT22;1872;51.406;6.856;2023-02-28T09:48:27;3.30;99.90
3713;DHT22;1872;51.406;6.856;2023-02-28T09:51:05;3.30;99.90
3713;DHT22;1872;51.406;6.856;2023-02-28T09:53:37;3.40;99.90
3713;DHT22;1872;51.406;6.856;2023-02-28T09:56:08;3.30;99.90
3713;DHT22;1872;51.406;6.856;2023-02-28T09:58:37;3.30;99.90
3713;DHT22;1872;51.406;6.856;2023-02-28T10:01:31;3.30;99.90
3713;DHT22;1872;51.406;6.856;2023-02-28T10:04:05;3.30;99.90
3713;DHT22;1872;51.406;6.856;2023-02-28T10:06:39;3.40;99.90
3713;DHT22;1872;51.406;6.856;2023-02-28T10:09:13;3.40;99.90
3713;DHT22;1872;51.406;6.856;2023-02-28T10:11:41;3.40;99.90
3713;DHT22;1872;51.406;6.856;2023-02-28T10:16:45;3.40;99.90
3713;DHT22;1872;51.406;6.856;2023-02-28T10:19:30;3.50;99.90
3713;DHT22;1872;51.406;6.856;2023-02-28T10:22:22;3.50;99.90
3713;DHT22;1872;51.406;6.856;2023-02-28T10:24:53;3.60;99.90
3713;DHT22;1872;51.406;6.856;2023-02-28T10:27:24;3.60;99.90
3713;DHT22;1872;51.406;6.856;2023-02-28T10:29:55;3.60;99.90
3713;DHT22;1872;51.406;6.856;2023-02-28T10:32:27;3.60;99.90
3713;DHT22;1872;51.406;6.856;2023-02-28T10:35:01;3.70;99.90
3713;DHT22;1872;51.406;6.856;2023-02-28T10:37:33;3.70;99.90
3713;DHT22;1872;51.406;6.856;2023-02-28T10:40:05;3.80;99.90
3713;DHT22;1872;51.406;6.856;2023-02-28T10:42:31;3.90;99.90
3713;DHT22;1872;51.406;6.856;2023-02-28T10:45:15;4.00;99.90
3713;DHT22;1872;51.406;6.856;2023-02-28T10:48:02;4.00;99.50
3713;DHT22;1872;51.406;6.856;2023-02-28T10:53:16;3.90;99.40
3713;DHT22;1872;51.406;6.856;2023-02-28T10:56:02;4.00;99.20
3713;DHT22;1872;51.406;6.856;2023-02-28T11:01:34;3.90;98.70
3713;DHT22;1872;51.406;6.856;2023-02-28T11:04:00;3.90;98.50
3713;DHT22;1872;51.406;6.856;2023-02-28T11:06:33;3.90;98.30
3713;DHT22;1872;51.406;6.856;2023-02-28T11:09:02;3.90;98.10
3713;DHT22;1872;51.406;6.856;2023-02-28T11:11:30;4.00;98.30
3713;DHT22;1872;51.406;6.856;2023-02-28T11:14:07;4.10;98.40
3713;DHT22;1872;51.406;6.856;2023-02-28T11:16:43;4.10;97.90
3713;DHT22;1872;51.406;6.856;2023-02-28T11:19:22;4.20;97.90
3713;DHT22;1872;51.406;6.856;2023-02-28T11:21:57;4.20;97.60
3713;DHT22;1872;51.406;6.856;2023-02-28T11:24:27;4.30;97.40
3713;DHT22;1872;51.406;6.856;2023-02-28T11:26:54;4.30;97.00
3713;DHT22;1872;51.406;6.856;2023-02-28T11:29:31;4.30;96.80
3713;DHT22;1872;51.406;6.856;2023-02-28T11:32:13;4.30;96.10
3713;DHT22;1872;51.406;6.856;2023-02-28T11:34:42;4.30;96.10
3713;DHT22;1872;51.406;6.856;2023-02-28T11:37:19;4.20;95.80
3713;DHT22;1872;51.406;6.856;2023-02-28T11:39:46;4.20;95.90
3713;DHT22;1872;51.406;6.856;2023-02-28T11:42:23;4.10;95.80
3713;DHT22;1872;51.406;6.856;2023-02-28T11:44:59;4.00;95.40
3713;DHT22;1872;51.406;6.856;2023-02-28T11:47:33;4.00;95.20
3713;DHT22;1872;51.406;6.856;2023-02-28T11:56:32;4.00;95.40
3713;DHT22;1872;51.406;6.856;2023-02-28T11:59:02;4.00;95.00
3713;DHT22;1872;51.406;6.856;2023-02-28T12:01:58;3.90;94.70
3713;DHT22;1872;51.406;6.856;2023-02-28T12:21:30;4.30;94.10
3713;DHT22;1872;51.406;6.856;2023-02-28T12:26:41;4.30;94.00
3713;DHT22;1872;51.406;6.856;2023-02-28T12:29:30;4.20;93.70
3713;DHT22;1872;51.406;6.856;2023-02-28T12:32:37;4.20;94.00
3713;DHT22;1872;51.406;6.856;2023-02-28T12:35:06;4.20;94.20
3713;DHT22;1872;51.406;6.856;2023-02-28T12:37:45;4.20;94.00
3713;DHT22;1872;51.406;6.856;2023-02-28T12:40:22;4.20;93.80
3713;DHT22;1872;51.406;6.856;2023-02-28T12:45:24;4.30;93.70
3713;DHT22;1872;51.406;6.856;2023-02-28T12:48:00;4.30;93.90
3713;DHT22;1872;51.406;6.856;2023-02-28T12:50:27;4.30;93.80
3713;DHT22;1872;51.406;6.856;2023-02-28T13:03:51;4.50;93.80
3713;DHT22;1872;51.406;6.856;2023-02-28T13:06:52;4.60;93.80
3713;DHT22;1872;51.406;6.856;2023-02-28T13:09:23;4.60;93.70
3713;DHT22;1872;51.406;6.856;2023-02-28T13:11:51;4.70;93.70
3713;DHT22;1872;51.406;6.856;2023-02-28T13:19:32;4.70;93.10
3713;DHT22;1872;51.406;6.856;2023-02-28T13:21:58;4.70;93.40
3713;DHT22;1872;51.406;6.856;2023-02-28T13:24:39;4.80;93.20
3713;DHT22;1872;51.406;6.856;2023-02-28T13:29:32;4.80;93.20
3713;DHT22;1872;51.406;6.856;2023-02-28T13:34:32;4.80;92.80
3713;DHT22;1872;51.406;6.856;2023-02-28T13:39:52;4.80;92.90
3713;DHT22;1872;51.406;6.856;2023-02-28T13:50:27;4.90;92.70
3713;DHT22;1872;51.406;6.856;2023-02-28T13:56:02;4.90;92.50
3713;DHT22;1872;51.406;6.856;2023-02-28T13:58:41;4.90;92.70
3713;DHT22;1872;51.406;6.856;2023-02-28T14:04:29;5.00;92.50
3713;DHT22;1872;51.406;6.856;2023-02-28T14:07:02;4.90;92.10
3713;DHT22;1872;51.406;6.856;2023-02-28T14:09:41;4.90;92.60
3713;DHT22;1872;51.406;6.856;2023-02-28T14:18:02;5.00;92.20
3713;DHT22;1872;51.406;6.856;2023-02-28T14:20:31;5.00;92.40
3713;DHT22;1872;51.406;6.856;2023-02-28T14:25:47;5.00;92.40
3713;DHT22;1872;51.406;6.856;2023-02-28T14:30:56;5.10;92.40
3713;DHT22;1872;51.406;6.856;2023-02-28T14:33:29;5.10;92.60
3713;DHT22;1872;51.406;6.856;2023-02-28T14:36:12;5.10;92.60
3713;DHT22;1872;51.406;6.856;2023-02-28T14:41:19;5.00;92.50
3713;DHT22;1872;51.406;6.856;2023-02-28T14:43:54;5.10;92.70
3713;DHT22;1872;51.406;6.856;2023-02-28T14:46:21;5.10;92.50
3713;DHT22;1872;51.406;6.856;2023-02-28T14:48:49;5.10;92.80
3713;DHT22;1872;51.406;6.856;2023-02-28T14:51:20;5.00;92.30
3713;DHT22;1872;51.406;6.856;2023-02-28T14:53:50;5.00;92.60
3713;DHT22;1872;51.406;6.856;2023-02-28T14:56:29;5.00;92.60
3713;DHT22;1872;51.406;6.856;2023-02-28T14:58:57;4.90;92.40
3713;DHT22;1872;51.406;6.856;2023-02-28T15:01:23;4.90;92.30
3713;DHT22;1872;51.406;6.856;2023-02-28T15:04:01;4.90;92.60
3713;DHT22;1872;51.406;6.856;2023-02-28T15:06:28;4.90;92.40
3713;DHT22;1872;51.406;6.856;2023-02-28T15:09:30;4.90;92.50
3713;DHT22;1872;51.406;6.856;2023-02-28T15:11:55;4.90;92.70
3713;DHT22;1872;51.406;6.856;2023-02-28T15:14:22;4.90;92.70
3713;DHT22;1872;51.406;6.856;2023-02-28T15:16:52;4.90;92.50
3713;DHT22;1872;51.406;6.856;2023-02-28T15:19:26;4.90;92.30
3713;DHT22;1872;51.406;6.856;2023-02-28T15:22:02;5.00;92.40
3713;DHT22;1872;51.406;6.856;2023-02-28T15:27:12;5.00;92.60
3713;DHT22;1872;51.406;6.856;2023-02-28T15:29:48;5.00;92.70
3713;DHT22;1872;51.406;6.856;2023-02-28T15:32:39;5.00;92.80
3713;DHT22;1872;51.406;6.856;2023-02-28T15:35:30;5.00;92.80
3713;DHT22;1872;51.406;6.856;2023-02-28T15:38:23;5.00;92.60
3713;DHT22;1872;51.406;6.856;2023-02-28T15:40:52;4.90;92.70
3713;DHT22;1872;51.406;6.856;2023-02-28T15:46:21;4.80;92.70
3713;DHT22;1872;51.406;6.856;2023-02-28T15:48:56;4.80;92.70
3713;DHT22;1872;51.406;6.856;2023-02-28T15:51:49;4.80;92.60
3713;DHT22;1872;51.406;6.856;2023-02-28T15:54:22;4.80;92.70
3713;DHT22;1872;51.406;6.856;2023-02-28T15:56:53;4.80;92.80
3713;DHT22;1872;51.406;6.856;2023-02-28T15:59:29;4.80;92.80
3713;DHT22;1872;51.406;6.856;2023-02-28T16:04:36;4.80;92.70
3713;DHT22;1872;51.406;6.856;2023-02-28T16:07:05;4.80;92.90
3713;DHT22;1872;51.406;6.856;2023-02-28T16:09:31;4.80;93.00
3713;DHT22;1872;51.406;6.856;2023-02-28T16:12:01;4.80;92.90
3713;DHT22;1872;51.406;6.856;2023-02-28T16:14:29;4.80;93.00
3713;DHT22;1872;51.406;6.856;2023-02-28T16:17:07;4.80;92.90
3713;DHT22;1872;51.406;6.856;2023-02-28T16:19:34;4.80;93.00
3713;DHT22;1872;51.406;6.856;2023-02-28T16:22:00;4.70;92.80
3713;DHT22;1872;51.406;6.856;2023-02-28T16:24:28;4.70;92.90
3713;DHT22;1872;51.406;6.856;2023-02-28T16:26:55;4.60;93.00
3713;DHT22;1872;51.406;6.856;2023-02-28T16:29:31;4.60;93.00
3713;DHT22;1872;51.406;6.856;2023-02-28T16:32:00;4.60;93.10
3713;DHT22;1872;51.406;6.856;2023-02-28T16:34:26;4.50;93.20
3713;DHT22;1872;51.406;6.856;2023-02-28T16:36:53;4.50;93.30
3713;DHT22;1872;51.406;6.856;2023-02-28T16:39:20;4.50;93.30
3713;DHT22;1872;51.406;6.856;2023-02-28T16:41:48;4.50;93.40
3713;DHT22;1872;51.406;6.856;2023-02-28T16:46:47;4.40;93.50
3713;DHT22;1872;51.406;6.856;2023-02-28T16:49:13;4.40;93.40
3713;DHT22;1872;51.406;6.856;2023-02-28T16:51:39;4.40;93.50
3713;DHT22;1872;51.406;6.856;2023-02-28T16:54:05;4.40;93.60
3713;DHT22;1872;51.406;6.856;2023-02-28T16:56:31;4.30;93.50
3713;DHT22;1872;51.406;6.856;2023-02-28T16:59:01;4.30;93.50
3713;DHT22;1872;51.406;6.856;2023-02-28T17:01:27;4.30;93.60
3713;DHT22;1872;51.406;6.856;2023-02-28T17:03:54;4.30;93.60
3713;DHT22;1872;51.406;6.856;2023-02-28T17:06:26;4.30;93.70
3713;DHT22;1872;51.406;6.856;2023-02-28T17:08:57;4.20;93.70
3713;DHT22;1872;51.406;6.856;2023-02-28T17:11:26;4.20;93.80
3713;DHT22;1872;51.406;6.856;2023-02-28T17:13:51;4.20;93.80
3713;DHT22;1872;51.406;6.856;2023-02-28T17:16:29;4.20;93.90
3713;DHT22;1872;51.406;6.856;2023-02-28T17:19:05;4.20;93.90
3713;DHT22;1872;51.406;6.856;2023-02-28T17:21:32;4.10;93.80
3713;DHT22;1872;51.406;6.856;2023-02-28T17:23:58;4.10;93.80
3713;DHT22;1872;51.406;6.856;2023-02-28T17:26:25;4.10;93.90
3713;DHT22;1872;51.406;6.856;2023-02-28T17:28:52;4.10;93.90
3713;DHT22;1872;51.406;6.856;2023-02-28T17:31:18;4.00;93.90
3713;DHT22;1872;51.406;6.856;2023-02-28T17:33:44;4.00;93.90
3713;DHT22;1872;51.406;6.856;2023-02-28T17:36:36;4.00;94.00
3713;DHT22;1872;51.406;6.856;2023-02-28T17:39:04;4.00;93.90
3713;DHT22;1872;51.406;6.856;2023-02-28T17:41:34;4.00;94.00
3713;DHT22;1872;51.406;6.856;2023-02-28T17:43:59;4.00;94.00
3713;DHT22;1872;51.406;6.856;2023-02-28T17:46:25;3.90;94.00
3713;DHT22;1872;51.406;6.856;2023-02-28T17:48:53;3.90;94.10
3713;DHT22;1872;51.406;6.856;2023-02-28T17:51:22;3.90;94.10
3713;DHT22;1872;51.406;6.856;2023-02-28T17:53:48;3.80;94.10
3713;DHT22;1872;51.406;6.856;2023-02-28T17:56:24;3.80;94.10
3713;DHT22;1872;51.406;6.856;2023-02-28T17:58:52;3.80;94.10
3713;DHT22;1872;51.406;6.856;2023-02-28T18:01:18;3.80;94.20
3713;DHT22;1872;51.406;6.856;2023-02-28T18:03:46;3.70;94.20
3713;DHT22;1872;51.406;6.856;2023-02-28T18:06:19;3.70;94.50
3713;DHT22;1872;51.406;6.856;2023-02-28T18:08:46;3.70;94.20
3713;DHT22;1872;51.406;6.856;2023-02-28T18:11:12;3.70;94.30
3713;DHT22;1872;51.406;6.856;2023-02-28T18:13:53;3.70;94.30
3713;DHT22;1872;51.406;6.856;2023-02-28T18:16:20;3.70;94.40
3713;DHT22;1872;51.406;6.856;2023-02-28T18:18:49;3.70;94.40
3713;DHT22;1872;51.406;6.856;2023-02-28T18:21:15;3.70;94.40
3713;DHT22;1872;51.406;6.856;2023-02-28T18:23:43;3.70;94.50
3713;DHT22;1872;51.406;6.856;2023-02-28T18:26:18;3.70;94.50
3713;DHT22;1872;51.406;6.856;2023-02-28T18:28:44;3.60;94.50
3713;DHT22;1872;51.406;6.856;2023-02-28T18:31:17;3.60;94.50
3713;DHT22;1872;51.406;6.856;2023-02-28T18:33:44;3.60;94.60
3713;DHT22;1872;51.406;6.856;2023-02-28T18:36:12;3.60;94.70
3713;DHT22;1872;51.406;6.856;2023-02-28T18:38:38;3.50;94.70
3713;DHT22;1872;51.406;6.856;2023-02-28T18:41:04;3.60;94.80
3713;DHT22;1872;51.406;6.856;2023-02-28T18:43:32;3.50;94.80
3713;DHT22;1872;51.406;6.856;2023-02-28T18:46:03;3.50;94.90
3713;DHT22;1872;51.406;6.856;2023-02-28T18:48:29;3.50;95.00